createdAt,value
2019-05-20T00:07:22.256Z,96089.90
2019-05-20T00:17:24.456Z,96067.73
2019-05-20T00:27:25.443Z,96077.61
2019-05-20T00:37:26.499Z,96074.14
2019-05-20T00:47:27.529Z,96064.91
2019-05-20T00:57:29.643Z,96054.32
2019-05-20T01:07:30.689Z,96033.08
2019-05-20T01:17:31.725Z,96028.50
2019-05-20T01:27:32.832Z,96020.11
2019-05-20T01:37:33.887Z,96010.90
2019-05-20T01:47:35.098Z,96012.02
2019-05-20T01:57:36.273Z,96015.13
2019-05-20T02:07:37.538Z,96010.17
2019-05-20T02:17:38.790Z,96021.60
2019-05-20T02:27:39.787Z,96030.09
2019-05-20T02:37:40.838Z,96026.77
2019-05-20T02:47:41.863Z,96025.39
2019-05-20T02:57:42.874Z,96019.56
2019-05-20T03:07:44.040Z,96025.06
2019-05-20T03:17:45.064Z,96017.02
2019-05-20T03:27:46.072Z,96020.92
2019-05-20T03:37:47.313Z,96000.31
2019-05-20T03:47:48.742Z,96025.42
2019-05-20T03:57:50.967Z,96023.91
2019-05-20T04:07:52.038Z,96025.06
2019-05-20T04:17:53.106Z,96024.88
2019-05-20T04:27:54.409Z,96018.33
2019-05-20T04:37:55.561Z,96007.81
2019-05-20T04:47:56.601Z,95991.56
2019-05-20T04:57:57.729Z,95979.78
2019-05-20T05:07:58.884Z,95984.03
2019-05-20T05:18:00.310Z,95982.65
2019-05-20T05:28:01.853Z,95989.81
2019-05-20T05:38:03.522Z,95988.63
2019-05-20T05:48:05.053Z,95995.40
2019-05-20T05:58:08.808Z,95996.29
2019-05-20T06:08:09.452Z,95999.06
2019-05-20T06:18:10.579Z,95990.59
2019-05-20T06:28:11.603Z,96001.65
2019-05-20T06:38:14.768Z,95987.58
2019-05-20T06:48:15.816Z,95981.26
2019-05-20T06:58:16.810Z,95985.11
2019-05-20T07:08:17.868Z,95971.93
2019-05-20T07:18:18.987Z,95978.55
2019-05-20T07:28:20.531Z,95992.37
2019-05-20T07:38:22.034Z,95997.80
2019-05-20T07:48:23.513Z,95992.08
2019-05-20T07:58:27.619Z,96004.95
2019-05-20T08:08:28.854Z,95997.83
2019-05-20T08:18:30.026Z,95999.55
2019-05-20T08:28:31.284Z,96000.59
2019-05-20T08:38:32.278Z,96010.97
2019-05-20T08:48:33.456Z,96014.71
2019-05-20T08:58:34.516Z,96016.71
2019-05-20T09:08:35.537Z,96019.06
2019-05-20T09:18:36.653Z,96010.36
2019-05-20T09:28:37.899Z,96004.91
2019-05-20T09:38:39.523Z,96002.52
2019-05-20T09:48:40.635Z,95999.59
2019-05-20T09:58:41.691Z,95993.44
2019-05-20T10:08:45.007Z,95996.33
2019-05-20T10:18:45.881Z,95988.48
2019-05-20T10:28:47.680Z,95984.84
2019-05-20T10:38:58.681Z,95985.28
2019-05-20T10:48:52.017Z,95983.53
2019-05-20T10:58:53.313Z,95992.30
2019-05-20T11:08:54.538Z,95986.50
2019-05-20T11:18:55.579Z,96001.55
2019-05-20T11:28:56.738Z,95998.78
2019-05-20T11:38:57.900Z,96008.73
2019-05-20T11:48:58.917Z,96012.39
2019-05-20T11:58:59.960Z,96012.98
2019-05-20T12:09:00.994Z,96026.51
2019-05-20T12:19:02.131Z,96046.98
2019-05-20T12:29:03.360Z,96050.35
2019-05-20T12:39:05.420Z,96055.92
2019-05-20T12:49:06.645Z,96057.95
2019-05-20T12:59:07.713Z,96071.62
2019-05-20T13:09:08.823Z,96066.56
2019-05-20T13:19:11.627Z,96072.34
2019-05-20T13:29:12.693Z,96077.28
2019-05-20T13:39:13.922Z,96074.28
2019-05-20T13:49:14.991Z,96073.45
2019-05-20T13:59:16.022Z,96077.28
2019-05-20T14:09:17.052Z,96085.31
2019-05-20T14:19:22.383Z,96074.45
2019-05-20T14:29:21.241Z,96070.47
2019-05-20T14:39:22.355Z,96069.72
2019-05-20T14:49:35.641Z,96058.47
2019-05-20T14:59:36.927Z,96064.58
2019-05-20T15:09:38.330Z,96068.27
2019-05-20T15:19:45.070Z,96055.29
2019-05-20T15:29:46.212Z,96054.17
2019-05-20T15:39:47.243Z,96060.85
2019-05-20T15:49:48.577Z,96060.06
2019-05-20T15:59:51.054Z,96063.45
2019-05-20T16:09:52.179Z,96061.34
2019-05-20T16:19:53.440Z,96062.19
2019-05-20T16:30:06.073Z,96062.55
2019-05-20T16:39:58.645Z,96061.91
2019-05-20T16:49:59.704Z,96052.86
2019-05-20T17:00:01.003Z,96109.34
2019-05-20T17:10:04.927Z,96097.45
2019-05-20T17:20:08.370Z,96104.12
2019-05-20T17:30:11.318Z,96102.67
2019-05-20T17:40:13.259Z,96107.60
2019-05-20T17:50:14.883Z,96096.81
2019-05-20T18:00:18.330Z,96096.63
2019-05-20T18:10:21.460Z,96102.73
2019-05-20T18:20:22.631Z,96100.63
2019-05-20T18:30:23.889Z,96101.45
2019-05-20T18:40:25.380Z,96105.78
2019-05-20T18:50:26.624Z,96118.48
2019-05-20T19:00:27.713Z,96118.30
2019-05-20T19:10:29.235Z,96114.91
2019-05-20T19:20:30.500Z,96129.16
2019-05-20T19:30:31.979Z,96142.28
2019-05-20T19:40:33.175Z,96148.14
2019-05-20T19:50:34.560Z,96163.57
2019-05-20T20:00:35.801Z,96170.99
2019-05-20T20:10:37.249Z,96172.16
2019-05-20T20:20:38.406Z,96176.98
2019-05-20T20:30:39.614Z,96180.28
2019-05-20T20:40:40.954Z,96183.97
2019-05-20T20:50:42.515Z,96197.86
2019-05-20T21:00:43.838Z,96194.59
2019-05-20T21:10:44.925Z,96192.72
2019-05-20T21:20:47.156Z,96192.75
2019-05-20T21:30:48.211Z,96193.11
2019-05-20T21:40:49.349Z,96194.18
2019-05-20T21:50:50.644Z,96190.95
2019-05-20T22:00:53.745Z,96188.88
2019-05-20T22:10:54.868Z,96185.73
2019-05-20T22:20:56.017Z,96184.81
2019-05-20T22:30:57.060Z,96169.69
2019-05-20T22:50:59.348Z,96167.03
2019-05-20T23:01:00.617Z,96164.14
2019-05-20T23:11:01.641Z,96154.98
2019-05-20T23:21:02.782Z,96152.20
2019-05-20T23:31:04.515Z,96159.55
2019-05-20T23:41:05.648Z,96154.78
2019-05-20T23:51:06.719Z,96160.30
